Guymon Municipal Airport
KGUY : now visible

Aeroporto :











RITROVATECI SU...

 
LOGIN :

Iscrizione | Disclaimer

   EN    FR    IT 

 









Sommario :    VFR   VFR Marginale   IFR   IFR Intensivo   IFR Molto Intensivo
Visibilità : 
Base nubi : 
>= 8 km
>= 3000ft
5 / 8 km
1000 / 3000 ft
1500m / 5 km
500 / 1000 ft
800 / 1500m
200 / 500 ft
< 800m
< 200 ft
Simboli :   Temporali  Nebbia  Neve Forte  Precipitazioni Forti  Vento > 20 kt






- Altitudine del aeroporto : 3123 ft


KGUY - Guymon Municipal

ULTIMO METAR :
  • 291953Z AUTO 08004KT 10SM CLR 07/M02 A3007 RMK AO2 SLP185 T00721022

METARs OBSOLETI :
  • 291853Z AUTO 14004KT 10SM CLR 06/M03 A3010 RMK AO2 SLP200 T00561028
  • 291753Z AUTO 00000KT 10SM CLR 06/M02 A3012 RMK AO2 SLP204 T00611022 10061 21039 50003

TAF KGUY
Valido dal 29 a 18 ore il 30 a 18 ore UTC


291800Z 2918/3018 13005KT P6SM FEW250
FM300500 18004KT 6SM BR SCT002
FM301400 23005KT P6SM SCT100



MetMap, La meteo Aeronautica in un colpo d'occhio ! - Copyright ORBIFLY Dicembre 2007 - Disclaimer

ORBIFLY MET'MAP TEAM :

Programmazione e sviluppo : Alexandra Zaïnal
Concezione : Baudouin d'Aumeries
Aiuto per la programmazione : Marc-Olivier Méhu
Supporto tecnico e logistico : Manuel Goepfert
Aiuto per la traduzione : Arnaldo La Scala

Contatto : metmap@orbifly.com




FONTI E CREDITI :

   NOAA       Earth
Advisory